sensor_id;sensor_type;location;lat;lon;timestamp;noise_LAeq;noise_LA_min;noise_LA_max;noise_LA01;noise_LA95
58303;Laerm;44109;52.398;7.024;2023-07-20T00:00:28;56.12;42.00;86.16;;
58303;Laerm;44109;52.398;7.024;2023-07-20T00:03:10;57.36;42.76;89.94;;
58303;Laerm;44109;52.398;7.024;2023-07-20T00:05:45;56.22;42.54;79.94;;
58303;Laerm;44109;52.398;7.024;2023-07-20T00:08:13;63.90;43.27;95.51;;
58303;Laerm;44109;52.398;7.024;2023-07-20T00:10:41;64.20;42.58;95.95;;
58303;Laerm;44109;52.398;7.024;2023-07-20T00:13:12;68.15;42.05;98.93;;
58303;Laerm;44109;52.398;7.024;2023-07-20T00:15:47;68.26;39.55;99.18;;
58303;Laerm;44109;52.398;7.024;2023-07-20T00:18:16;69.31;38.79;102.40;;
58303;Laerm;44109;52.398;7.024;2023-07-20T00:20:47;75.59;45.88;103.87;;
58303;Laerm;44109;52.398;7.024;2023-07-20T00:23:15;72.37;43.23;101.41;;
58303;Laerm;44109;52.398;7.024;2023-07-20T00:25:42;68.58;39.18;98.52;;
58303;Laerm;44109;52.398;7.024;2023-07-20T00:28:10;67.52;36.18;97.93;;
58303;Laerm;44109;52.398;7.024;2023-07-20T00:30:38;64.87;33.92;96.88;;
58303;Laerm;44109;52.398;7.024;2023-07-20T00:33:09;65.23;33.58;101.25;;
58303;Laerm;44109;52.398;7.024;2023-07-20T00:35:39;63.64;34.03;93.71;;
58303;Laerm;44109;52.398;7.024;2023-07-20T00:38:06;58.79;33.88;90.72;;
58303;Laerm;44109;52.398;7.024;2023-07-20T00:40:37;54.25;33.04;81.43;;
58303;Laerm;44109;52.398;7.024;2023-07-20T00:43:05;47.84;32.72;68.69;;
58303;Laerm;44109;52.398;7.024;2023-07-20T00:45:33;54.07;32.32;88.69;;
58303;Laerm;44109;52.398;7.024;2023-07-20T00:48:02;49.95;32.56;73.37;;
58303;Laerm;44109;52.398;7.024;2023-07-20T00:50:32;46.86;32.03;66.03;;
58303;Laerm;44109;52.398;7.024;2023-07-20T00:53:04;66.55;33.24;101.87;;
58303;Laerm;44109;52.398;7.024;2023-07-20T00:55:32;55.99;32.18;91.47;;
58303;Laerm;44109;52.398;7.024;2023-07-20T00:58:00;52.51;32.88;75.25;;
58303;Laerm;44109;52.398;7.024;2023-07-20T01:00:28;70.15;43.10;98.94;;
58303;Laerm;44109;52.398;7.024;2023-07-20T01:02:55;73.83;49.44;101.70;;
58303;Laerm;44109;52.398;7.024;2023-07-20T01:05:33;71.87;47.13;99.90;;
58303;Laerm;44109;52.398;7.024;2023-07-20T01:08:11;70.90;43.40;100.41;;
58303;Laerm;44109;52.398;7.024;2023-07-20T01:10:44;62.11;36.43;95.16;;
58303;Laerm;44109;52.398;7.024;2023-07-20T01:13:14;68.60;35.76;102.59;;
58303;Laerm;44109;52.398;7.024;2023-07-20T01:15:49;54.30;33.63;87.49;;
58303;Laerm;44109;52.398;7.024;2023-07-20T01:18:17;50.84;33.71;77.50;;
58303;Laerm;44109;52.398;7.024;2023-07-20T01:20:45;56.45;34.02;91.14;;
58303;Laerm;44109;52.398;7.024;2023-07-20T01:23:42;47.21;33.30;69.15;;
58303;Laerm;44109;52.398;7.024;2023-07-20T01:26:38;53.21;32.97;88.72;;
58303;Laerm;44109;52.398;7.024;2023-07-20T01:29:41;49.21;33.20;79.26;;
58303;Laerm;44109;52.398;7.024;2023-07-20T01:32:13;56.71;34.92;91.45;;
58303;Laerm;44109;52.398;7.024;2023-07-20T01:34:45;62.46;33.89;96.70;;
58303;Laerm;44109;52.398;7.024;2023-07-20T01:37:15;48.17;33.59;77.60;;
58303;Laerm;44109;52.398;7.024;2023-07-20T01:39:46;59.31;33.38;94.83;;
58303;Laerm;44109;52.398;7.024;2023-07-20T01:42:14;53.95;33.43;88.53;;
58303;Laerm;44109;52.398;7.024;2023-07-20T01:44:42;49.75;32.45;79.30;;
58303;Laerm;44109;52.398;7.024;2023-07-20T01:47:11;48.89;32.80;73.11;;
58303;Laerm;44109;52.398;7.024;2023-07-20T01:49:39;47.91;33.04;69.44;;
58303;Laerm;44109;52.398;7.024;2023-07-20T01:52:06;47.86;32.96;73.15;;
58303;Laerm;44109;52.398;7.024;2023-07-20T01:54:34;46.36;33.13;62.45;;
58303;Laerm;44109;52.398;7.024;2023-07-20T01:57:02;48.65;32.50;77.83;;
58303;Laerm;44109;52.398;7.024;2023-07-20T01:59:30;46.70;32.98;67.35;;
58303;Laerm;44109;52.398;7.024;2023-07-20T02:01:57;46.58;33.09;68.69;;
58303;Laerm;44109;52.398;7.024;2023-07-20T02:04:26;46.56;32.99;67.33;;
58303;Laerm;44109;52.398;7.024;2023-07-20T02:06:54;46.49;32.85;68.66;;
58303;Laerm;44109;52.398;7.024;2023-07-20T02:09:22;49.52;32.79;79.80;;
58303;Laerm;44109;52.398;7.024;2023-07-20T02:11:49;46.09;32.87;57.62;;
58303;Laerm;44109;52.398;7.024;2023-07-20T02:14:17;46.52;32.67;67.18;;
58303;Laerm;44109;52.398;7.024;2023-07-20T02:16:44;46.47;32.51;66.42;;
58303;Laerm;44109;52.398;7.024;2023-07-20T02:19:14;46.51;32.95;67.96;;
58303;Laerm;44109;52.398;7.024;2023-07-20T02:21:43;48.13;33.37;67.45;;
58303;Laerm;44109;52.398;7.024;2023-07-20T02:24:13;48.37;32.68;78.97;;
58303;Laerm;44109;52.398;7.024;2023-07-20T02:26:40;46.26;32.79;67.32;;
58303;Laerm;44109;52.398;7.024;2023-07-20T02:29:08;48.66;32.86;79.71;;
58303;Laerm;44109;52.398;7.024;2023-07-20T02:31:38;46.21;32.72;66.77;;
58303;Laerm;44109;52.398;7.024;2023-07-20T02:34:06;46.35;32.89;64.17;;
58303;Laerm;44109;52.398;7.024;2023-07-20T02:36:34;46.27;33.16;63.02;;
58303;Laerm;44109;52.398;7.024;2023-07-20T02:39:03;47.24;32.10;71.87;;
58303;Laerm;44109;52.398;7.024;2023-07-20T02:41:33;47.03;32.11;70.15;;
58303;Laerm;44109;52.398;7.024;2023-07-20T02:44:01;47.13;32.62;73.58;;
58303;Laerm;44109;52.398;7.024;2023-07-20T02:46:29;49.51;32.86;81.65;;
58303;Laerm;44109;52.398;7.024;2023-07-20T02:48:57;46.78;33.36;70.60;;
58303;Laerm;44109;52.398;7.024;2023-07-20T02:51:25;59.97;32.89;96.05;;
58303;Laerm;44109;52.398;7.024;2023-07-20T02:53:52;46.43;32.67;67.25;;
58303;Laerm;44109;52.398;7.024;2023-07-20T02:56:21;46.37;33.03;63.21;;
58303;Laerm;44109;52.398;7.024;2023-07-20T02:58:49;50.97;33.72;84.60;;
58303;Laerm;44109;52.398;7.024;2023-07-20T03:01:16;51.48;31.87;85.95;;
58303;Laerm;44109;52.398;7.024;2023-07-20T03:03:44;46.19;31.55;57.29;;
58303;Laerm;44109;52.398;7.024;2023-07-20T03:06:13;46.43;32.39;64.17;;
58303;Laerm;44109;52.398;7.024;2023-07-20T03:08:41;46.44;32.35;62.09;;
58303;Laerm;44109;52.398;7.024;2023-07-20T03:11:13;45.92;33.24;56.37;;
58303;Laerm;44109;52.398;7.024;2023-07-20T03:13:44;46.43;33.53;59.91;;
58303;Laerm;44109;52.398;7.024;2023-07-20T03:16:14;50.87;33.15;70.29;;
58303;Laerm;44109;52.398;7.024;2023-07-20T03:18:42;47.02;33.41;57.38;;
58303;Laerm;44109;52.398;7.024;2023-07-20T03:21:10;51.53;33.45;75.71;;
58303;Laerm;44109;52.398;7.024;2023-07-20T03:23:39;47.24;33.98;61.91;;
58303;Laerm;44109;52.398;7.024;2023-07-20T03:26:06;47.58;33.48;63.34;;
58303;Laerm;44109;52.398;7.024;2023-07-20T03:28:36;47.90;33.63;62.19;;
58303;Laerm;44109;52.398;7.024;2023-07-20T03:31:05;49.41;33.80;63.10;;
58303;Laerm;44109;52.398;7.024;2023-07-20T03:33:34;49.18;33.25;62.54;;
58303;Laerm;44109;52.398;7.024;2023-07-20T03:36:01;49.70;33.64;67.11;;
58303;Laerm;44109;52.398;7.024;2023-07-20T03:38:29;47.66;33.91;64.72;;
58303;Laerm;44109;52.398;7.024;2023-07-20T03:40:59;47.89;33.68;59.40;;
58303;Laerm;44109;52.398;7.024;2023-07-20T03:43:28;48.41;33.58;62.96;;
58303;Laerm;44109;52.398;7.024;2023-07-20T03:45:56;47.43;33.42;56.75;;
58303;Laerm;44109;52.398;7.024;2023-07-20T03:48:25;48.56;33.53;66.98;;
58303;Laerm;44109;52.398;7.024;2023-07-20T03:50:54;47.45;33.48;66.77;;
58303;Laerm;44109;52.398;7.024;2023-07-20T03:53:21;47.33;33.74;58.11;;
58303;Laerm;44109;52.398;7.024;2023-07-20T03:55:51;47.05;33.38;63.95;;
58303;Laerm;44109;52.398;7.024;2023-07-20T03:58:20;47.06;33.89;60.44;;
58303;Laerm;44109;52.398;7.024;2023-07-20T04:00:50;47.87;33.62;69.81;;
58303;Laerm;44109;52.398;7.024;2023-07-20T04:03:19;48.56;33.88;70.82;;
58303;Laerm;44109;52.398;7.024;2023-07-20T04:05:48;55.54;33.72;78.32;;
58303;Laerm;44109;52.398;7.024;2023-07-20T04:08:15;56.85;33.08;77.64;;
58303;Laerm;44109;52.398;7.024;2023-07-20T04:10:44;48.57;33.97;66.36;;
58303;Laerm;44109;52.398;7.024;2023-07-20T04:13:12;48.76;33.94;68.66;;
58303;Laerm;44109;52.398;7.024;2023-07-20T04:15:39;48.25;33.93;67.46;;
58303;Laerm;44109;52.398;7.024;2023-07-20T04:18:07;47.17;34.06;65.18;;
58303;Laerm;44109;52.398;7.024;2023-07-20T04:20:34;47.33;33.69;66.54;;
58303;Laerm;44109;52.398;7.024;2023-07-20T04:23:03;56.84;33.43;92.66;;
58303;Laerm;44109;52.398;7.024;2023-07-20T04:25:31;48.38;34.14;70.22;;
58303;Laerm;44109;52.398;7.024;2023-07-20T04:28:06;47.07;34.21;62.36;;
58303;Laerm;44109;52.398;7.024;2023-07-20T04:30:36;47.09;34.18;61.87;;
58303;Laerm;44109;52.398;7.024;2023-07-20T04:33:04;48.21;34.40;70.80;;
58303;Laerm;44109;52.398;7.024;2023-07-20T04:35:50;47.97;34.62;69.33;;
58303;Laerm;44109;52.398;7.024;2023-07-20T04:38:20;48.27;34.08;68.17;;
58303;Laerm;44109;52.398;7.024;2023-07-20T04:40:49;49.31;34.55;68.45;;
58303;Laerm;44109;52.398;7.024;2023-07-20T04:43:18;47.42;33.88;66.38;;
58303;Laerm;44109;52.398;7.024;2023-07-20T04:45:46;47.03;34.18;57.97;;
58303;Laerm;44109;52.398;7.024;2023-07-20T04:48:16;47.24;34.59;57.80;;
58303;Laerm;44109;52.398;7.024;2023-07-20T04:50:45;47.10;34.11;71.07;;
58303;Laerm;44109;52.398;7.024;2023-07-20T04:53:13;46.99;34.73;58.94;;
58303;Laerm;44109;52.398;7.024;2023-07-20T04:55:48;46.54;34.71;56.83;;
58303;Laerm;44109;52.398;7.024;2023-07-20T04:58:18;46.87;34.64;56.71;;
58303;Laerm;44109;52.398;7.024;2023-07-20T05:00:47;48.94;34.69;67.80;;
58303;Laerm;44109;52.398;7.024;2023-07-20T05:03:15;49.12;35.51;65.35;;
58303;Laerm;44109;52.398;7.024;2023-07-20T05:05:43;48.31;35.38;76.19;;
58303;Laerm;44109;52.398;7.024;2023-07-20T05:08:10;48.86;34.89;77.78;;
58303;Laerm;44109;52.398;7.024;2023-07-20T05:10:38;47.96;35.49;63.95;;
58303;Laerm;44109;52.398;7.024;2023-07-20T05:13:07;48.41;35.06;68.98;;
58303;Laerm;44109;52.398;7.024;2023-07-20T05:15:35;49.24;34.84;70.94;;
58303;Laerm;44109;52.398;7.024;2023-07-20T05:18:02;49.61;34.87;73.72;;
58303;Laerm;44109;52.398;7.024;2023-07-20T05:20:30;48.31;34.90;69.96;;
58303;Laerm;44109;52.398;7.024;2023-07-20T05:22:59;47.78;34.86;62.40;;
58303;Laerm;44109;52.398;7.024;2023-07-20T05:25:27;49.44;34.14;69.97;;
58303;Laerm;44109;52.398;7.024;2023-07-20T05:27:54;49.95;34.66;74.12;;
58303;Laerm;44109;52.398;7.024;2023-07-20T05:30:23;49.02;34.34;69.64;;
58303;Laerm;44109;52.398;7.024;2023-07-20T05:32:51;49.50;34.31;71.40;;
58303;Laerm;44109;52.398;7.024;2023-07-20T05:35:20;49.53;34.25;76.96;;
58303;Laerm;44109;52.398;7.024;2023-07-20T05:37:48;48.50;36.04;67.65;;
58303;Laerm;44109;52.398;7.024;2023-07-20T05:40:16;47.86;35.75;63.34;;
58303;Laerm;44109;52.398;7.024;2023-07-20T05:42:45;48.81;36.45;76.75;;
58303;Laerm;44109;52.398;7.024;2023-07-20T05:45:14;49.58;36.21;66.55;;
58303;Laerm;44109;52.398;7.024;2023-07-20T05:47:43;48.85;36.43;61.86;;
58303;Laerm;44109;52.398;7.024;2023-07-20T05:50:11;50.17;34.65;70.74;;
58303;Laerm;44109;52.398;7.024;2023-07-20T05:52:39;48.70;33.89;68.81;;
58303;Laerm;44109;52.398;7.024;2023-07-20T05:55:08;48.48;34.11;58.78;;
58303;Laerm;44109;52.398;7.024;2023-07-20T05:57:36;48.45;33.90;71.13;;
58303;Laerm;44109;52.398;7.024;2023-07-20T06:00:09;48.83;33.22;69.68;;
58303;Laerm;44109;52.398;7.024;2023-07-20T06:02:38;48.55;33.47;63.04;;
58303;Laerm;44109;52.398;7.024;2023-07-20T06:05:09;47.37;33.88;57.90;;
58303;Laerm;44109;52.398;7.024;2023-07-20T06:07:37;48.85;33.44;67.45;;
58303;Laerm;44109;52.398;7.024;2023-07-20T06:10:06;49.52;32.97;69.39;;
58303;Laerm;44109;52.398;7.024;2023-07-20T06:12:34;47.60;33.20;58.21;;
58303;Laerm;44109;52.398;7.024;2023-07-20T06:15:03;47.62;33.62;57.76;;
58303;Laerm;44109;52.398;7.024;2023-07-20T06:17:31;48.03;34.57;68.91;;
58303;Laerm;44109;52.398;7.024;2023-07-20T06:19:59;48.05;33.66;58.29;;
58303;Laerm;44109;52.398;7.024;2023-07-20T06:22:28;47.65;33.97;60.15;;
58303;Laerm;44109;52.398;7.024;2023-07-20T06:24:55;47.86;34.07;60.37;;
58303;Laerm;44109;52.398;7.024;2023-07-20T06:27:23;48.72;33.61;62.23;;
58303;Laerm;44109;52.398;7.024;2023-07-20T06:29:51;49.47;35.20;72.50;;
58303;Laerm;44109;52.398;7.024;2023-07-20T06:32:18;48.27;33.28;70.80;;
58303;Laerm;44109;52.398;7.024;2023-07-20T06:34:46;47.93;33.36;62.73;;
58303;Laerm;44109;52.398;7.024;2023-07-20T06:37:13;47.63;34.54;58.39;;
58303;Laerm;44109;52.398;7.024;2023-07-20T06:39:42;48.24;34.24;62.17;;
58303;Laerm;44109;52.398;7.024;2023-07-20T06:42:10;48.49;33.70;60.31;;
58303;Laerm;44109;52.398;7.024;2023-07-20T06:44:38;48.20;34.10;64.57;;
58303;Laerm;44109;52.398;7.024;2023-07-20T06:47:05;48.17;33.84;65.77;;
58303;Laerm;44109;52.398;7.024;2023-07-20T06:49:33;48.19;34.02;60.87;;
58303;Laerm;44109;52.398;7.024;2023-07-20T06:52:01;47.86;34.67;60.35;;
58303;Laerm;44109;52.398;7.024;2023-07-20T06:54:29;48.23;34.02;58.66;;
58303;Laerm;44109;52.398;7.024;2023-07-20T06:56:58;49.09;33.71;63.25;;
58303;Laerm;44109;52.398;7.024;2023-07-20T06:59:26;48.99;32.89;63.89;;
58303;Laerm;44109;52.398;7.024;2023-07-20T07:01:53;48.35;33.82;59.35;;
58303;Laerm;44109;52.398;7.024;2023-07-20T07:04:22;49.48;33.78;76.02;;
58303;Laerm;44109;52.398;7.024;2023-07-20T07:06:49;48.08;33.99;62.42;;
58303;Laerm;44109;52.398;7.024;2023-07-20T07:09:17;51.09;34.37;83.47;;
58303;Laerm;44109;52.398;7.024;2023-07-20T07:11:48;48.10;34.28;64.92;;
58303;Laerm;44109;52.398;7.024;2023-07-20T07:14:17;48.42;34.49;60.65;;
58303;Laerm;44109;52.398;7.024;2023-07-20T07:16:45;50.01;34.16;80.04;;
58303;Laerm;44109;52.398;7.024;2023-07-20T07:19:13;48.59;33.75;64.05;;
58303;Laerm;44109;52.398;7.024;2023-07-20T07:21:40;48.49;33.37;59.57;;
58303;Laerm;44109;52.398;7.024;2023-07-20T07:24:08;48.88;33.30;60.78;;
58303;Laerm;44109;52.398;7.024;2023-07-20T07:26:36;48.37;33.70;61.06;;
58303;Laerm;44109;52.398;7.024;2023-07-20T07:29:04;49.20;34.34;62.47;;
58303;Laerm;44109;52.398;7.024;2023-07-20T07:31:35;50.30;33.59;69.53;;
58303;Laerm;44109;52.398;7.024;2023-07-20T07:34:03;48.79;34.84;58.69;;
58303;Laerm;44109;52.398;7.024;2023-07-20T07:36:30;48.86;34.86;62.86;;
58303;Laerm;44109;52.398;7.024;2023-07-20T07:38:58;47.57;34.00;58.14;;
58303;Laerm;44109;52.398;7.024;2023-07-20T07:41:26;49.17;34.33;62.62;;
58303;Laerm;44109;52.398;7.024;2023-07-20T07:43:53;48.56;34.03;62.19;;
58303;Laerm;44109;52.398;7.024;2023-07-20T07:46:21;50.28;33.18;78.81;;
58303;Laerm;44109;52.398;7.024;2023-07-20T07:48:50;48.01;33.43;68.54;;
58303;Laerm;44109;52.398;7.024;2023-07-20T07:51:17;48.90;34.61;62.78;;
58303;Laerm;44109;52.398;7.024;2023-07-20T07:53:45;49.11;35.29;59.03;;
58303;Laerm;44109;52.398;7.024;2023-07-20T07:56:15;48.67;34.83;58.96;;
58303;Laerm;44109;52.398;7.024;2023-07-20T07:58:43;48.93;34.43;60.42;;
58303;Laerm;44109;52.398;7.024;2023-07-20T08:01:11;48.92;33.91;59.74;;
58303;Laerm;44109;52.398;7.024;2023-07-20T08:03:38;50.87;34.76;65.21;;
58303;Laerm;44109;52.398;7.024;2023-07-20T08:06:08;48.90;34.26;69.94;;
58303;Laerm;44109;52.398;7.024;2023-07-20T08:08:35;48.49;33.69;71.01;;
58303;Laerm;44109;52.398;7.024;2023-07-20T08:11:04;47.71;34.33;58.24;;
58303;Laerm;44109;52.398;7.024;2023-07-20T08:13:31;48.79;33.54;64.92;;
58303;Laerm;44109;52.398;7.024;2023-07-20T08:15:59;48.11;34.21;58.53;;
58303;Laerm;44109;52.398;7.024;2023-07-20T08:18:28;48.93;35.69;65.13;;
58303;Laerm;44109;52.398;7.024;2023-07-20T08:20:56;49.53;35.33;68.12;;
58303;Laerm;44109;52.398;7.024;2023-07-20T08:23:25;48.25;33.80;62.18;;
58303;Laerm;44109;52.398;7.024;2023-07-20T08:25:53;48.12;34.14;58.60;;
58303;Laerm;44109;52.398;7.024;2023-07-20T08:28:21;48.05;33.74;58.83;;
58303;Laerm;44109;52.398;7.024;2023-07-20T08:30:49;48.94;34.64;61.59;;
58303;Laerm;44109;52.398;7.024;2023-07-20T08:33:18;47.65;34.25;61.33;;
58303;Laerm;44109;52.398;7.024;2023-07-20T08:35:47;47.51;34.93;57.77;;
58303;Laerm;44109;52.398;7.024;2023-07-20T08:38:14;48.37;35.43;58.16;;
58303;Laerm;44109;52.398;7.024;2023-07-20T08:40:45;48.18;35.32;61.40;;
58303;Laerm;44109;52.398;7.024;2023-07-20T08:43:14;49.45;36.40;63.21;;
58303;Laerm;44109;52.398;7.024;2023-07-20T08:45:44;48.88;33.70;71.55;;
58303;Laerm;44109;52.398;7.024;2023-07-20T08:48:13;48.32;35.19;61.53;;
58303;Laerm;44109;52.398;7.024;2023-07-20T08:50:42;48.53;34.89;62.46;;
58303;Laerm;44109;52.398;7.024;2023-07-20T08:53:10;49.48;34.29;66.88;;
58303;Laerm;44109;52.398;7.024;2023-07-20T08:55:43;49.14;34.73;62.72;;
58303;Laerm;44109;52.398;7.024;2023-07-20T08:58:13;48.91;34.46;62.36;;
58303;Laerm;44109;52.398;7.024;2023-07-20T09:00:41;49.56;35.07;67.26;;
58303;Laerm;44109;52.398;7.024;2023-07-20T09:03:11;49.23;35.01;66.13;;
58303;Laerm;44109;52.398;7.024;2023-07-20T09:05:38;48.69;34.94;59.65;;
58303;Laerm;44109;52.398;7.024;2023-07-20T09:08:07;49.15;36.10;63.31;;
58303;Laerm;44109;52.398;7.024;2023-07-20T09:10:34;48.71;36.29;60.36;;
58303;Laerm;44109;52.398;7.024;2023-07-20T09:13:03;48.83;35.60;61.09;;
58303;Laerm;44109;52.398;7.024;2023-07-20T09:15:31;48.80;35.95;63.83;;
58303;Laerm;44109;52.398;7.024;2023-07-20T09:18:02;49.60;37.04;67.27;;
58303;Laerm;44109;52.398;7.024;2023-07-20T09:20:32;50.00;39.08;64.11;;
58303;Laerm;44109;52.398;7.024;2023-07-20T09:23:04;50.41;35.07;74.16;;
58303;Laerm;44109;52.398;7.024;2023-07-20T09:25:33;48.39;35.44;58.11;;
58303;Laerm;44109;52.398;7.024;2023-07-20T09:28:04;48.64;35.79;57.97;;
58303;Laerm;44109;52.398;7.024;2023-07-20T09:30:32;48.84;35.35;64.35;;
58303;Laerm;44109;52.398;7.024;2023-07-20T09:33:00;49.03;35.40;61.47;;
58303;Laerm;44109;52.398;7.024;2023-07-20T09:35:29;48.40;35.12;61.87;;
58303;Laerm;44109;52.398;7.024;2023-07-20T09:38:00;48.80;35.73;58.28;;
58303;Laerm;44109;52.398;7.024;2023-07-20T09:40:29;52.40;35.74;71.84;;
58303;Laerm;44109;52.398;7.024;2023-07-20T09:42:59;50.00;35.05;72.89;;
58303;Laerm;44109;52.398;7.024;2023-07-20T09:45:33;49.04;35.86;66.67;;
58303;Laerm;44109;52.398;7.024;2023-07-20T09:48:03;48.70;35.22;58.18;;
58303;Laerm;44109;52.398;7.024;2023-07-20T09:50:32;49.40;35.23;62.70;;
58303;Laerm;44109;52.398;7.024;2023-07-20T09:53:01;49.15;35.76;65.64;;
58303;Laerm;44109;52.398;7.024;2023-07-20T09:55:29;49.79;36.14;61.66;;
58303;Laerm;44109;52.398;7.024;2023-07-20T09:57:59;48.60;36.43;59.91;;
58303;Laerm;44109;52.398;7.024;2023-07-20T10:00:27;48.59;35.04;58.37;;
58303;Laerm;44109;52.398;7.024;2023-07-20T10:02:58;49.49;35.14;61.26;;
58303;Laerm;44109;52.398;7.024;2023-07-20T10:05:33;48.69;34.96;58.11;;
58303;Laerm;44109;52.398;7.024;2023-07-20T10:08:03;48.56;34.99;60.48;;
58303;Laerm;44109;52.398;7.024;2023-07-20T10:10:34;48.72;36.67;68.94;;
58303;Laerm;44109;52.398;7.024;2023-07-20T10:13:03;49.17;39.09;62.84;;
58303;Laerm;44109;52.398;7.024;2023-07-20T10:15:36;49.27;35.74;62.92;;
58303;Laerm;44109;52.398;7.024;2023-07-20T10:18:10;50.03;38.82;72.99;;
58303;Laerm;44109;52.398;7.024;2023-07-20T10:20:40;49.97;37.74;64.41;;
58303;Laerm;44109;52.398;7.024;2023-07-20T10:23:09;49.53;36.15;69.79;;
58303;Laerm;44109;52.398;7.024;2023-07-20T10:25:38;49.39;35.59;67.29;;
58303;Laerm;44109;52.398;7.024;2023-07-20T10:28:07;48.85;36.39;64.32;;
58303;Laerm;44109;52.398;7.024;2023-07-20T10:30:36;48.46;34.17;63.65;;
58303;Laerm;44109;52.398;7.024;2023-07-20T10:33:06;49.24;34.21;73.06;;
58303;Laerm;44109;52.398;7.024;2023-07-20T10:35:54;49.79;33.56;65.99;;
58303;Laerm;44109;52.398;7.024;2023-07-20T10:38:40;48.99;34.74;67.27;;
58303;Laerm;44109;52.398;7.024;2023-07-20T10:41:19;48.14;34.72;58.43;;
58303;Laerm;44109;52.398;7.024;2023-07-20T10:43:48;48.52;35.13;57.99;;
58303;Laerm;44109;52.398;7.024;2023-07-20T10:46:43;48.20;35.85;58.79;;
58303;Laerm;44109;52.398;7.024;2023-07-20T10:49:14;50.69;35.65;73.11;;
58303;Laerm;44109;52.398;7.024;2023-07-20T10:51:44;51.85;35.64;73.32;;
58303;Laerm;44109;52.398;7.024;2023-07-20T10:54:35;49.03;36.30;63.65;;
58303;Laerm;44109;52.398;7.024;2023-07-20T10:57:31;48.25;35.15;64.45;;
58303;Laerm;44109;52.398;7.024;2023-07-20T11:00:10;68.35;37.07;89.97;;
58303;Laerm;44109;52.398;7.024;2023-07-20T11:02:44;78.53;55.29;101.35;;
58303;Laerm;44109;52.398;7.024;2023-07-20T11:05:39;82.11;63.58;101.87;;
58303;Laerm;44109;52.398;7.024;2023-07-20T11:08:12;80.90;51.12;103.15;;
58303;Laerm;44109;52.398;7.024;2023-07-20T11:10:40;71.66;51.26;95.48;;
58303;Laerm;44109;52.398;7.024;2023-07-20T11:13:19;70.88;51.36;98.68;;
58303;Laerm;44109;52.398;7.024;2023-07-20T11:15:48;69.88;47.74;98.07;;
58303;Laerm;44109;52.398;7.024;2023-07-20T11:18:15;71.99;47.21;98.64;;
58303;Laerm;44109;52.398;7.024;2023-07-20T11:20:50;73.28;48.65;101.25;;
58303;Laerm;44109;52.398;7.024;2023-07-20T11:23:17;72.09;48.28;102.16;;
58303;Laerm;44109;52.398;7.024;2023-07-20T11:25:46;67.59;46.53;97.31;;
58303;Laerm;44109;52.398;7.024;2023-07-20T11:28:14;70.64;44.13;101.78;;
58303;Laerm;44109;52.398;7.024;2023-07-20T11:30:42;65.01;43.28;99.03;;
58303;Laerm;44109;52.398;7.024;2023-07-20T11:33:10;62.10;41.25;93.54;;
58303;Laerm;44109;52.398;7.024;2023-07-20T11:35:44;56.41;42.92;84.99;;
58303;Laerm;44109;52.398;7.024;2023-07-20T11:38:12;53.62;42.53;84.11;;
58303;Laerm;44109;52.398;7.024;2023-07-20T11:40:43;54.69;41.27;87.23;;
58303;Laerm;44109;52.398;7.024;2023-07-20T11:43:11;54.14;41.72;82.03;;
58303;Laerm;44109;52.398;7.024;2023-07-20T11:45:39;53.34;41.82;82.76;;
58303;Laerm;44109;52.398;7.024;2023-07-20T11:48:14;50.32;42.23;73.63;;
58303;Laerm;44109;52.398;7.024;2023-07-20T11:50:43;52.79;41.53;77.69;;
58303;Laerm;44109;52.398;7.024;2023-07-20T11:53:11;50.18;42.21;65.39;;
58303;Laerm;44109;52.398;7.024;2023-07-20T11:55:40;50.84;40.20;76.38;;
58303;Laerm;44109;52.398;7.024;2023-07-20T11:58:09;50.50;41.05;68.49;;
58303;Laerm;44109;52.398;7.024;2023-07-20T12:00:39;50.67;42.58;70.95;;
58303;Laerm;44109;52.398;7.024;2023-07-20T12:03:12;51.47;39.05;80.50;;
58303;Laerm;44109;52.398;7.024;2023-07-20T12:05:40;50.70;38.13;75.58;;
58303;Laerm;44109;52.398;7.024;2023-07-20T12:08:09;49.27;35.82;66.76;;
58303;Laerm;44109;52.398;7.024;2023-07-20T12:10:39;50.60;35.39;75.01;;
58303;Laerm;44109;52.398;7.024;2023-07-20T12:13:10;49.56;35.70;66.73;;
58303;Laerm;44109;52.398;7.024;2023-07-20T12:15:38;50.17;34.54;73.22;;
58303;Laerm;44109;52.398;7.024;2023-07-20T12:18:06;50.32;35.84;67.05;;
58303;Laerm;44109;52.398;7.024;2023-07-20T12:20:36;49.28;35.41;58.62;;
58303;Laerm;44109;52.398;7.024;2023-07-20T12:23:08;48.49;34.53;58.48;;
58303;Laerm;44109;52.398;7.024;2023-07-20T12:25:41;48.03;34.77;58.11;;
58303;Laerm;44109;52.398;7.024;2023-07-20T12:28:12;49.79;33.99;71.42;;
58303;Laerm;44109;52.398;7.024;2023-07-20T12:30:42;49.32;35.34;67.68;;
58303;Laerm;44109;52.398;7.024;2023-07-20T12:33:10;48.51;34.73;58.15;;
58303;Laerm;44109;52.398;7.024;2023-07-20T12:35:41;48.54;34.86;60.00;;
58303;Laerm;44109;52.398;7.024;2023-07-20T12:38:09;49.48;34.91;66.40;;
58303;Laerm;44109;52.398;7.024;2023-07-20T12:40:37;49.82;34.71;72.17;;
58303;Laerm;44109;52.398;7.024;2023-07-20T12:43:06;48.22;34.66;58.08;;
58303;Laerm;44109;52.398;7.024;2023-07-20T12:45:34;48.29;33.28;63.01;;
58303;Laerm;44109;52.398;7.024;2023-07-20T12:48:01;48.42;35.22;59.96;;
58303;Laerm;44109;52.398;7.024;2023-07-20T12:50:29;48.51;35.21;61.22;;
58303;Laerm;44109;52.398;7.024;2023-07-20T12:52:57;48.22;34.26;60.96;;
58303;Laerm;44109;52.398;7.024;2023-07-20T12:55:24;48.19;33.97;59.27;;
58303;Laerm;44109;52.398;7.024;2023-07-20T12:57:52;48.26;34.65;65.98;;
58303;Laerm;44109;52.398;7.024;2023-07-20T13:00:21;48.13;33.96;68.73;;
58303;Laerm;44109;52.398;7.024;2023-07-20T13:02:49;47.73;34.11;57.76;;
58303;Laerm;44109;52.398;7.024;2023-07-20T13:05:17;48.65;34.76;58.87;;
58303;Laerm;44109;52.398;7.024;2023-07-20T13:07:44;47.86;34.25;57.96;;
58303;Laerm;44109;52.398;7.024;2023-07-20T13:10:13;48.19;34.22;57.70;;
58303;Laerm;44109;52.398;7.024;2023-07-20T13:12:40;47.94;35.03;58.08;;
58303;Laerm;44109;52.398;7.024;2023-07-20T13:15:10;48.01;35.82;58.00;;
58303;Laerm;44109;52.398;7.024;2023-07-20T13:17:39;47.57;34.13;57.48;;
58303;Laerm;44109;52.398;7.024;2023-07-20T13:20:09;49.61;35.29;61.74;;
58303;Laerm;44109;52.398;7.024;2023-07-20T13:22:38;50.27;34.04;62.22;;
58303;Laerm;44109;52.398;7.024;2023-07-20T13:25:07;48.50;34.64;65.15;;
58303;Laerm;44109;52.398;7.024;2023-07-20T13:27:36;47.62;33.81;68.28;;
58303;Laerm;44109;52.398;7.024;2023-07-20T13:30:06;47.51;34.75;59.36;;
58303;Laerm;44109;52.398;7.024;2023-07-20T13:32:36;48.77;34.13;60.45;;
58303;Laerm;44109;52.398;7.024;2023-07-20T13:35:06;48.09;33.52;61.75;;
58303;Laerm;44109;52.398;7.024;2023-07-20T13:37:34;48.07;34.52;62.71;;
58303;Laerm;44109;52.398;7.024;2023-07-20T13:40:01;46.94;34.26;57.53;;
58303;Laerm;44109;52.398;7.024;2023-07-20T13:42:31;47.41;35.07;71.08;;
58303;Laerm;44109;52.398;7.024;2023-07-20T13:44:59;48.02;34.97;57.59;;
58303;Laerm;44109;52.398;7.024;2023-07-20T13:47:27;48.61;34.98;75.09;;
58303;Laerm;44109;52.398;7.024;2023-07-20T13:49:55;49.13;35.10;59.13;;
58303;Laerm;44109;52.398;7.024;2023-07-20T13:52:24;47.92;35.00;72.96;;
58303;Laerm;44109;52.398;7.024;2023-07-20T13:54:52;48.23;34.16;58.10;;
58303;Laerm;44109;52.398;7.024;2023-07-20T13:57:19;48.32;34.27;61.80;;